createdAt,value
2022-08-17T00:01:51.504Z,26.50
2022-08-17T00:04:20.779Z,31.13
2022-08-17T00:06:49.342Z,35.60
2022-08-17T00:09:19.475Z,30.23
2022-08-17T00:12:42.177Z,31.48
2022-08-17T00:14:36.524Z,30.48
2022-08-17T00:17:06.492Z,33.58
2022-08-17T00:19:34.215Z,36.50
2022-08-17T00:22:32.500Z,37.97
2022-08-17T00:24:51.981Z,38.92
2022-08-17T00:27:19.673Z,41.25
2022-08-17T00:29:48.253Z,40.22
2022-08-17T00:33:15.480Z,39.55
2022-08-17T00:35:05.165Z,43.60
2022-08-17T00:37:32.847Z,47.13
2022-08-17T00:40:01.978Z,48.30
2022-08-17T00:42:31.223Z,48.88
2022-08-17T00:44:59.143Z,48.83
2022-08-17T00:47:26.845Z,44.10
2022-08-17T00:49:54.506Z,47.58
2022-08-17T00:52:23.939Z,44.42
2022-08-17T00:54:54.518Z,50.83
2022-08-17T00:57:25.227Z,44.63
2022-08-17T01:00:02.137Z,52.20
2022-08-17T01:02:34.881Z,54.78
2022-08-17T01:05:10.499Z,53.97
2022-08-17T01:07:38.491Z,57.75
2022-08-17T01:10:08.768Z,49.63
2022-08-17T01:12:57.846Z,53.65
2022-08-17T01:15:25.519Z,46.72
2022-08-17T01:17:53.198Z,47.92
2022-08-17T01:20:20.936Z,52.65
2022-08-17T01:22:50.069Z,45.00
2022-08-17T01:25:18.205Z,53.97
2022-08-17T01:27:45.868Z,49.90
2022-08-17T01:30:57.777Z,58.05
2022-08-17T01:33:01.882Z,51.72
2022-08-17T01:35:29.544Z,50.00
2022-08-17T01:37:58.607Z,56.40
2022-08-17T01:40:30.167Z,53.67
2022-08-17T01:42:59.446Z,49.85
2022-08-17T01:45:28.209Z,50.60
2022-08-17T01:47:56.581Z,57.67
2022-08-17T01:50:25.942Z,51.28
2022-08-17T01:52:56.055Z,50.30
2022-08-17T01:55:27.995Z,54.17
2022-08-17T01:57:56.011Z,51.97
2022-08-17T02:00:23.931Z,53.47
2022-08-17T02:02:51.801Z,62.25
2022-08-17T02:05:19.634Z,56.25
2022-08-17T02:07:59.356Z,51.95
2022-08-17T02:10:33.894Z,51.08
2022-08-17T02:13:02.259Z,50.97
2022-08-17T02:15:29.979Z,54.85
2022-08-17T02:17:57.826Z,55.63
2022-08-17T02:20:42.620Z,58.97
2022-08-17T02:23:11.897Z,52.05
2022-08-17T02:25:43.401Z,54.17
2022-08-17T02:28:11.262Z,52.13
2022-08-17T02:31:01.615Z,54.47
2022-08-17T02:33:37.176Z,57.35
2022-08-17T02:36:11.957Z,51.08
2022-08-17T02:38:39.970Z,56.88
2022-08-17T02:41:09.523Z,49.03
2022-08-17T02:43:37.192Z,51.05
2022-08-17T02:46:04.973Z,53.38
2022-08-17T02:48:32.638Z,50.67
2022-08-17T02:51:00.344Z,50.63
2022-08-17T02:53:28.117Z,52.17
2022-08-17T02:56:03.345Z,57.47
2022-08-17T02:58:34.515Z,55.85
2022-08-17T03:01:03.903Z,54.78
2022-08-17T03:03:31.547Z,55.15
2022-08-17T03:05:59.241Z,53.10
2022-08-17T03:08:27.317Z,56.05
2022-08-17T03:10:55.196Z,54.33
2022-08-17T03:13:23.155Z,49.35
2022-08-17T03:15:52.190Z,50.30
2022-08-17T03:18:25.066Z,58.10
2022-08-17T03:20:55.325Z,45.45
2022-08-17T03:23:24.168Z,54.75
2022-08-17T03:25:53.874Z,52.25
2022-08-17T03:28:21.711Z,57.33
2022-08-17T03:30:52.937Z,59.65
2022-08-17T03:33:20.879Z,52.95
2022-08-17T03:35:48.545Z,51.85
2022-08-17T03:38:17.423Z,51.70
2022-08-17T03:40:56.487Z,57.05
2022-08-17T03:43:27.619Z,60.15
2022-08-17T03:46:34.348Z,62.47
2022-08-17T03:49:20.189Z,62.83
2022-08-17T03:52:05.047Z,62.22
2022-08-17T03:54:49.942Z,64.53
2022-08-17T03:57:19.178Z,73.70
2022-08-17T03:59:47.706Z,73.10
2022-08-17T04:02:18.765Z,67.55
2022-08-17T04:04:46.725Z,70.05
2022-08-17T04:07:14.389Z,67.90
2022-08-17T04:09:42.977Z,62.03
2022-08-17T04:12:12.486Z,60.75
2022-08-17T04:14:53.740Z,65.95
2022-08-17T04:17:24.805Z,61.42
2022-08-17T04:19:53.009Z,60.35
2022-08-17T04:22:30.531Z,71.82
2022-08-17T04:25:01.821Z,66.50
2022-08-17T04:27:29.479Z,70.35
2022-08-17T04:29:58.578Z,75.53
2022-08-17T04:33:02.282Z,69.40
2022-08-17T04:35:18.586Z,70.03
2022-08-17T04:37:46.317Z,61.83
2022-08-17T04:40:31.868Z,75.55
2022-08-17T04:45:32.040Z,68.45
2022-08-17T04:48:01.849Z,60.38
2022-08-17T04:50:29.915Z,69.70
2022-08-17T04:52:57.810Z,71.60
2022-08-17T04:55:25.684Z,78.57
2022-08-17T04:57:53.511Z,76.18
2022-08-17T05:00:21.457Z,84.03
2022-08-17T05:02:50.694Z,80.32
2022-08-17T05:05:20.782Z,79.95
2022-08-17T05:07:48.677Z,83.72
2022-08-17T05:10:16.569Z,77.85
2022-08-17T05:12:44.698Z,76.15
2022-08-17T05:15:14.295Z,81.32
2022-08-17T05:17:42.451Z,73.47
2022-08-17T05:20:14.187Z,78.70
2022-08-17T05:22:51.373Z,81.63
2022-08-17T05:25:20.006Z,78.05
2022-08-17T05:27:53.204Z,81.20
2022-08-17T05:30:21.851Z,91.63
2022-08-17T05:32:53.201Z,86.75
2022-08-17T05:35:21.009Z,100.07
2022-08-17T05:37:50.095Z,100.07
2022-08-17T05:40:18.195Z,95.93
2022-08-17T05:42:45.952Z,100.43
2022-08-17T05:45:13.652Z,84.25
2022-08-17T05:47:41.588Z,89.40
2022-08-17T05:50:10.840Z,88.20
2022-08-17T05:52:48.873Z,98.07
2022-08-17T05:55:21.481Z,94.28
2022-08-17T05:57:57.009Z,82.03
2022-08-17T06:00:30.253Z,83.10
2022-08-17T06:03:08.522Z,84.90
2022-08-17T06:05:41.507Z,77.20
2022-08-17T06:08:13.251Z,75.18
2022-08-17T06:10:47.177Z,84.63
2022-08-17T06:13:20.182Z,80.05
2022-08-17T06:15:54.113Z,73.28
2022-08-17T06:18:22.831Z,79.30
2022-08-17T06:20:53.350Z,85.10
2022-08-17T06:23:25.009Z,82.03
2022-08-17T06:25:57.216Z,84.20
2022-08-17T06:28:28.739Z,76.43
2022-08-17T06:31:00.771Z,81.40
2022-08-17T06:33:34.225Z,79.05
2022-08-17T06:36:09.372Z,77.03
2022-08-17T06:38:42.602Z,75.82
2022-08-17T06:41:16.960Z,77.43
2022-08-17T06:43:49.363Z,80.82
2022-08-17T06:46:20.666Z,85.07
2022-08-17T06:48:52.335Z,82.97
2022-08-17T06:51:23.351Z,86.75
2022-08-17T06:53:53.981Z,81.13
2022-08-17T06:56:54.277Z,86.82
2022-08-17T06:59:23.863Z,86.05
2022-08-17T07:01:53.415Z,78.80
2022-08-17T07:04:23.047Z,89.47
2022-08-17T07:06:52.243Z,105.32
2022-08-17T07:09:23.427Z,99.32
2022-08-17T07:11:55.347Z,104.22
2022-08-17T07:14:41.102Z,102.93
2022-08-17T07:17:10.180Z,122.72
2022-08-17T07:19:40.661Z,116.40
2022-08-17T07:22:11.269Z,113.38
2022-08-17T07:24:45.331Z,108.57
2022-08-17T07:27:16.478Z,109.00
2022-08-17T07:29:47.829Z,103.65
2022-08-17T07:32:17.926Z,95.15
2022-08-17T07:35:05.213Z,96.78
2022-08-17T07:37:33.434Z,78.03
2022-08-17T07:40:16.048Z,84.93
2022-08-17T07:43:01.114Z,84.93
2022-08-17T07:45:48.750Z,97.82
2022-08-17T07:50:50.645Z,101.70
2022-08-17T07:53:19.217Z,110.10
2022-08-17T07:55:47.197Z,109.72
2022-08-17T07:58:18.700Z,105.57
2022-08-17T08:00:46.431Z,97.18
2022-08-17T08:03:21.849Z,104.20
2022-08-17T08:05:52.744Z,93.60
2022-08-17T08:08:23.746Z,96.85
2022-08-17T08:10:58.880Z,104.78
2022-08-17T08:13:29.688Z,94.10
2022-08-17T08:16:13.291Z,96.40
2022-08-17T08:18:55.270Z,83.18
2022-08-17T08:21:30.067Z,91.63
2022-08-17T08:24:00.559Z,86.35
2022-08-17T08:26:33.402Z,78.95
2022-08-17T08:29:09.626Z,72.80
2022-08-17T08:31:45.972Z,70.88
2022-08-17T08:35:00.538Z,74.45
2022-08-17T08:37:16.615Z,68.65
2022-08-17T08:39:52.948Z,64.88
2022-08-17T08:42:24.465Z,63.17
2022-08-17T08:45:04.694Z,57.38
2022-08-17T08:47:42.554Z,59.10
2022-08-17T08:50:37.351Z,68.05
2022-08-17T08:53:11.446Z,69.72
2022-08-17T08:55:46.497Z,71.65
2022-08-17T08:58:31.943Z,72.97
2022-08-17T09:01:16.939Z,76.20
2022-08-17T09:04:23.367Z,77.40
2022-08-17T09:06:58.753Z,81.32
2022-08-17T09:09:30.372Z,83.22
2022-08-17T09:12:04.113Z,73.22
2022-08-17T09:14:46.645Z,59.40
2022-08-17T09:17:19.274Z,60.75
2022-08-17T09:19:49.460Z,66.65
2022-08-17T09:22:23.463Z,65.82
2022-08-17T09:24:57.130Z,64.75
2022-08-17T09:27:28.372Z,62.20
2022-08-17T09:30:02.556Z,66.07
2022-08-17T09:32:35.260Z,64.27
2022-08-17T09:35:06.700Z,62.15
2022-08-17T09:37:38.564Z,62.50
2022-08-17T09:40:12.325Z,60.33
2022-08-17T09:42:43.744Z,62.38
2022-08-17T09:45:17.334Z,55.53
2022-08-17T09:47:49.334Z,59.20
2022-08-17T09:51:05.262Z,53.30
2022-08-17T09:53:10.642Z,49.47
2022-08-17T09:55:53.116Z,50.60
2022-08-17T09:58:29.063Z,49.22
2022-08-17T10:00:58.825Z,39.38
2022-08-17T10:03:32.397Z,50.85
2022-08-17T10:06:02.784Z,49.60
2022-08-17T10:08:37.621Z,50.80
2022-08-17T10:11:14.767Z,57.92
2022-08-17T10:13:53.037Z,56.75
2022-08-17T10:16:25.768Z,54.90
2022-08-17T10:19:02.175Z,49.65
2022-08-17T10:21:49.466Z,48.45
2022-08-17T10:25:21.727Z,41.33
2022-08-17T10:27:40.858Z,51.72
2022-08-17T10:30:13.826Z,45.45
2022-08-17T10:32:46.032Z,54.22
2022-08-17T10:35:25.919Z,54.60
2022-08-17T10:38:14.723Z,49.97
2022-08-17T10:40:47.974Z,49.72
2022-08-17T10:43:24.843Z,46.38
2022-08-17T10:46:09.219Z,50.38
2022-08-17T10:48:45.495Z,52.40
2022-08-17T10:51:36.426Z,49.28
2022-08-17T10:54:05.319Z,52.08
2022-08-17T10:56:44.655Z,42.47
2022-08-17T10:59:32.401Z,43.75
2022-08-17T11:02:12.235Z,44.30
2022-08-17T11:04:52.368Z,48.38
2022-08-17T11:07:43.786Z,48.53
2022-08-17T11:10:21.458Z,51.00
2022-08-17T11:12:54.303Z,47.20
2022-08-17T11:15:26.959Z,42.22
2022-08-17T11:18:13.720Z,46.50
2022-08-17T11:20:58.026Z,58.13
2022-08-17T11:23:34.275Z,44.10
2022-08-17T11:26:04.051Z,47.35
2022-08-17T11:28:35.286Z,55.35
2022-08-17T11:31:07.640Z,53.35
2022-08-17T11:33:52.969Z,54.70
2022-08-17T11:38:58.067Z,54.47
2022-08-17T11:41:29.092Z,59.80
2022-08-17T11:44:11.695Z,53.72
2022-08-17T11:47:07.714Z,52.22
2022-08-17T11:49:55.786Z,51.72
2022-08-17T11:52:42.118Z,56.65
2022-08-17T11:55:38.530Z,53.40
2022-08-17T11:58:34.237Z,57.70
2022-08-17T12:01:02.805Z,56.28
2022-08-17T12:03:55.346Z,55.97
2022-08-17T12:06:42.487Z,56.88
2022-08-17T12:09:13.312Z,54.53
2022-08-17T12:12:11.196Z,60.95
2022-08-17T12:15:08.155Z,60.55
2022-08-17T12:17:39.365Z,51.60
2022-08-17T12:20:12.175Z,30.45
2022-08-17T12:22:45.096Z,21.92
2022-08-17T12:25:14.696Z,20.45
2022-08-17T12:28:05.549Z,19.35
2022-08-17T12:30:34.679Z,21.02
2022-08-17T12:33:02.610Z,20.45
2022-08-17T12:35:33.144Z,19.55
2022-08-17T12:38:01.528Z,20.05
2022-08-17T12:40:31.537Z,21.40
2022-08-17T12:43:01.823Z,22.95
2022-08-17T12:45:30.610Z,19.60
2022-08-17T12:48:02.742Z,15.70
2022-08-17T12:50:32.465Z,20.17
2022-08-17T12:53:02.474Z,15.25
2022-08-17T12:55:33.119Z,19.80
2022-08-17T12:58:03.113Z,17.23
2022-08-17T13:00:32.186Z,19.13
2022-08-17T13:03:03.075Z,19.20
2022-08-17T13:05:31.824Z,18.38
2022-08-17T13:08:00.340Z,16.27
2022-08-17T13:10:32.883Z,15.30
2022-08-17T13:13:04.981Z,15.70
2022-08-17T13:15:36.948Z,15.65
2022-08-17T13:18:07.023Z,16.73
2022-08-17T13:20:35.780Z,15.77
2022-08-17T13:23:11.442Z,16.02
2022-08-17T13:25:40.173Z,14.80
2022-08-17T13:28:18.086Z,16.50
2022-08-17T13:31:13.092Z,13.75
2022-08-17T13:33:44.628Z,14.30
2022-08-17T13:36:13.131Z,13.90
2022-08-17T13:41:30.825Z,14.48
2022-08-17T13:43:58.507Z,15.52
2022-08-17T13:46:29.479Z,15.88
2022-08-17T13:49:03.312Z,16.17
2022-08-17T13:51:33.580Z,13.10
2022-08-17T13:54:17.690Z,16.17
2022-08-17T13:57:02.993Z,13.45
2022-08-17T13:59:55.053Z,17.02
2022-08-17T14:02:25.967Z,10.88
2022-08-17T14:04:58.520Z,12.50
2022-08-17T14:07:31.136Z,12.68
2022-08-17T14:10:00.290Z,10.98
2022-08-17T14:12:30.733Z,11.40
2022-08-17T14:14:59.510Z,10.93
2022-08-17T14:17:28.906Z,11.60
2022-08-17T14:19:58.458Z,10.80
2022-08-17T14:22:28.557Z,11.52
2022-08-17T14:24:58.295Z,12.75
2022-08-17T14:27:28.206Z,11.40
2022-08-17T14:29:57.986Z,9.95
2022-08-17T14:32:26.796Z,11.15
2022-08-17T14:34:56.603Z,10.40
2022-08-17T14:37:27.943Z,10.95
2022-08-17T14:39:56.889Z,11.85
2022-08-17T14:42:26.334Z,11.27
2022-08-17T14:44:54.106Z,11.63
2022-08-17T14:47:21.855Z,10.48
2022-08-17T14:49:49.947Z,13.25
2022-08-17T14:52:21.574Z,11.85
2022-08-17T14:54:51.325Z,9.88
2022-08-17T14:57:25.144Z,13.38
2022-08-17T15:00:01.744Z,15.30
2022-08-17T15:02:30.895Z,12.27
2022-08-17T15:05:02.939Z,11.90
2022-08-17T15:07:31.510Z,13.20
2022-08-17T15:10:02.326Z,14.00
2022-08-17T15:12:33.794Z,9.60
2022-08-17T15:15:02.187Z,11.95
2022-08-17T15:17:44.485Z,11.40
2022-08-17T15:20:15.266Z,11.45
2022-08-17T15:22:43.723Z,10.43
2022-08-17T15:25:13.244Z,12.98
2022-08-17T15:27:40.990Z,11.70
2022-08-17T15:30:09.924Z,12.75
2022-08-17T15:32:39.245Z,15.40
2022-08-17T15:35:08.817Z,14.10
2022-08-17T15:37:36.587Z,15.77
2022-08-17T15:40:05.146Z,12.18
2022-08-17T15:42:35.569Z,12.57
2022-08-17T15:45:06.455Z,13.00
2022-08-17T15:47:34.296Z,17.67
2022-08-17T15:50:02.127Z,12.48
2022-08-17T15:52:30.849Z,13.40
2022-08-17T15:54:59.442Z,12.32
2022-08-17T15:57:27.751Z,12.90
2022-08-17T15:59:58.678Z,13.70
2022-08-17T16:03:46.741Z,13.43
2022-08-17T16:05:18.803Z,11.27
2022-08-17T16:07:47.696Z,13.63
2022-08-17T16:10:19.027Z,11.02
2022-08-17T16:12:47.236Z,13.05
2022-08-17T16:15:16.902Z,13.82
2022-08-17T16:17:45.040Z,13.15
2022-08-17T16:20:20.148Z,10.50
2022-08-17T16:22:49.223Z,11.00
2022-08-17T16:25:18.825Z,10.00
2022-08-17T16:27:46.662Z,10.27
2022-08-17T16:30:17.523Z,10.68
2022-08-17T16:32:51.416Z,10.98
2022-08-17T16:35:21.274Z,11.65
2022-08-17T16:37:49.540Z,15.70
2022-08-17T16:40:17.563Z,15.35
2022-08-17T16:42:47.997Z,13.48
2022-08-17T16:45:16.800Z,12.90
2022-08-17T16:47:44.694Z,14.82
2022-08-17T16:50:15.829Z,16.35
2022-08-17T16:52:43.512Z,16.98
2022-08-17T16:55:13.241Z,15.35
2022-08-17T16:57:47.589Z,15.55
2022-08-17T17:00:19.442Z,17.27
2022-08-17T17:02:48.801Z,17.05
2022-08-17T17:05:24.439Z,18.27
2022-08-17T17:07:55.908Z,14.55
2022-08-17T17:10:25.023Z,16.50
2022-08-17T17:13:02.387Z,16.38
2022-08-17T17:15:34.572Z,18.90
2022-08-17T17:18:07.314Z,14.02
2022-08-17T17:20:40.336Z,13.90
2022-08-17T17:23:11.307Z,16.27
2022-08-17T17:25:48.930Z,15.75
2022-08-17T17:28:20.226Z,16.83
2022-08-17T17:30:51.073Z,16.30
2022-08-17T17:33:19.755Z,18.13
2022-08-17T17:35:49.931Z,18.02
2022-08-17T17:38:19.854Z,16.23
2022-08-17T17:40:48.325Z,16.75
2022-08-17T17:43:37.898Z,17.35
2022-08-17T17:46:28.109Z,20.25
2022-08-17T17:48:57.062Z,20.77
2022-08-17T17:52:05.277Z,17.25
2022-08-17T17:54:28.116Z,18.95
2022-08-17T17:57:01.757Z,20.83
2022-08-17T17:59:33.963Z,21.08
2022-08-17T18:02:05.838Z,20.30
2022-08-17T18:04:36.672Z,19.65
2022-08-17T18:07:15.322Z,19.23
2022-08-17T18:09:51.729Z,22.73
2022-08-17T18:12:28.452Z,23.25
2022-08-17T18:15:00.878Z,22.42
2022-08-17T18:17:29.970Z,21.90
2022-08-17T18:19:57.999Z,22.00
2022-08-17T18:22:28.065Z,24.55
2022-08-17T18:24:57.321Z,21.05
2022-08-17T18:27:27.465Z,23.85
2022-08-17T18:29:56.558Z,21.88
2022-08-17T18:32:26.867Z,24.13
2022-08-17T18:34:56.466Z,21.33
2022-08-17T18:37:43.774Z,19.33
2022-08-17T18:40:29.923Z,22.83
2022-08-17T18:43:00.279Z,19.27
2022-08-17T18:45:33.455Z,21.10
2022-08-17T18:48:01.259Z,21.77
2022-08-17T18:50:35.090Z,20.92
2022-08-17T18:53:19.557Z,20.92
2022-08-17T18:55:47.273Z,22.63
2022-08-17T18:58:19.839Z,20.30
2022-08-17T19:00:49.122Z,21.95
2022-08-17T19:03:23.271Z,20.63
2022-08-17T19:05:51.588Z,20.70
2022-08-17T19:08:22.520Z,21.02
2022-08-17T19:10:52.385Z,22.45
2022-08-17T19:13:24.441Z,22.15
2022-08-17T19:16:11.841Z,23.58
2022-08-17T19:18:47.404Z,23.27
2022-08-17T19:21:16.668Z,25.67
2022-08-17T19:23:53.849Z,23.58
2022-08-17T19:26:50.614Z,25.17
2022-08-17T19:29:13.108Z,25.08
2022-08-17T19:31:42.508Z,25.73
2022-08-17T19:34:10.954Z,24.55
2022-08-17T19:36:41.941Z,23.02
2022-08-17T19:39:16.348Z,23.15
2022-08-17T19:41:47.758Z,25.83
2022-08-17T19:44:36.769Z,24.40
2022-08-17T19:47:10.561Z,23.33
2022-08-17T19:49:46.643Z,28.23
2022-08-17T19:52:22.116Z,23.85
2022-08-17T19:54:56.412Z,29.25
2022-08-17T19:57:31.371Z,26.93
2022-08-17T20:00:01.998Z,29.75
2022-08-17T20:02:32.624Z,30.70
2022-08-17T20:05:01.415Z,35.45
2022-08-17T20:07:30.242Z,36.47
2022-08-17T20:10:02.619Z,29.05
2022-08-17T20:12:32.634Z,34.97
2022-08-17T20:15:01.209Z,33.75
2022-08-17T20:17:32.007Z,36.35
2022-08-17T20:20:06.428Z,30.33
2022-08-17T20:22:50.370Z,36.95
2022-08-17T20:25:30.159Z,41.58
2022-08-17T20:28:05.876Z,34.60
2022-08-17T20:30:37.560Z,39.60
2022-08-17T20:33:06.524Z,38.20
2022-08-17T20:35:36.297Z,41.10
2022-08-17T20:38:05.508Z,36.05
2022-08-17T20:40:39.115Z,45.67
2022-08-17T20:43:25.324Z,41.95
2022-08-17T20:46:13.049Z,45.40
2022-08-17T20:48:43.519Z,52.80
2022-08-17T20:51:25.996Z,51.38
2022-08-17T20:54:23.661Z,48.08
2022-08-17T20:56:56.206Z,49.70
2022-08-17T20:59:38.732Z,49.45
2022-08-17T21:02:18.743Z,50.45
2022-08-17T21:05:00.074Z,47.30
2022-08-17T21:07:30.114Z,49.03
2022-08-17T21:10:11.382Z,42.17
2022-08-17T21:12:42.545Z,47.88
2022-08-17T21:15:18.566Z,49.30
2022-08-17T21:17:49.968Z,49.03
2022-08-17T21:20:26.577Z,56.67
2022-08-17T21:23:00.253Z,59.65
2022-08-17T21:25:34.527Z,52.40
2022-08-17T21:28:08.575Z,56.40
2022-08-17T21:30:51.729Z,54.65
2022-08-17T21:33:21.087Z,52.78
2022-08-17T21:35:51.557Z,57.35
2022-08-17T21:38:22.048Z,52.10
2022-08-17T21:40:51.138Z,52.13
2022-08-17T21:43:24.619Z,55.60
2022-08-17T21:45:57.653Z,56.13
2022-08-17T21:48:27.035Z,57.45
2022-08-17T21:51:02.337Z,55.13
2022-08-17T21:53:33.369Z,52.20
2022-08-17T21:56:01.700Z,54.65
2022-08-17T21:58:32.376Z,47.63
2022-08-17T22:01:10.284Z,48.17
2022-08-17T22:03:38.570Z,55.80
2022-08-17T22:06:19.490Z,51.45
2022-08-17T22:08:57.982Z,48.70
2022-08-17T22:11:25.902Z,45.63
2022-08-17T22:14:00.584Z,53.35
2022-08-17T22:16:33.970Z,48.88
2022-08-17T22:19:01.721Z,49.10
2022-08-17T22:21:29.422Z,51.58
2022-08-17T22:24:04.360Z,48.22
2022-08-17T22:26:46.976Z,39.80
2022-08-17T22:29:30.192Z,40.35
2022-08-17T22:31:59.675Z,38.28
2022-08-17T22:34:27.336Z,41.17
2022-08-17T22:37:09.810Z,44.63
2022-08-17T22:39:41.525Z,41.58
2022-08-17T22:42:14.937Z,49.92
2022-08-17T22:44:47.457Z,50.13
2022-08-17T22:47:32.171Z,52.42
2022-08-17T22:50:01.271Z,43.07
2022-08-17T22:52:32.489Z,41.72
2022-08-17T22:55:24.045Z,43.10
2022-08-17T22:58:09.418Z,50.50
2022-08-17T23:00:39.015Z,63.60
2022-08-17T23:03:12.932Z,68.15
2022-08-17T23:05:42.054Z,77.78
2022-08-17T23:08:11.311Z,78.50
2022-08-17T23:10:39.379Z,78.93
2022-08-17T23:13:10.448Z,81.47
2022-08-17T23:15:39.806Z,79.80
2022-08-17T23:18:07.767Z,97.72
2022-08-17T23:20:37.615Z,98.35
2022-08-17T23:23:06.429Z,102.18
2022-08-17T23:25:34.722Z,97.65
2022-08-17T23:28:02.909Z,120.25
2022-08-17T23:30:31.292Z,106.93
2022-08-17T23:33:01.103Z,111.90
2022-08-17T23:35:39.858Z,106.20
2022-08-17T23:38:10.226Z,122.38
2022-08-17T23:40:39.536Z,121.13
2022-08-17T23:43:24.824Z,145.35
2022-08-17T23:45:53.986Z,278.38
2022-08-17T23:48:36.270Z,256.73
2022-08-17T23:51:05.976Z,136.57
2022-08-17T23:53:36.696Z,129.15
2022-08-17T23:56:10.324Z,136.50
2022-08-17T23:58:39.498Z,155.77
